| Time | Avg. Air Temp | Dew Point | Avg. Rel Humidity | Avg. 2 Min Wind Speed | Max Gust Velocity | MGV Time | MGV Direction | Avg. Spot Wind Velocity |
|---|---|---|---|---|---|---|---|---|
| 2026-09-03 04:50:00 | 4° C | 2° C | 91% | 19 km/h | 24 km/h | 04:49:00 | SE | 16 km/h |
| 03:50:00 | 4° C | 2° C | 91% | 9 km/h | 13 km/h | 03:48:00 | SE | 10 km/h |
| 02:50:00 | 4° C | 3° C | 93% | 18 km/h | 20 km/h | 02:49:00 | SE | 14 km/h |
| 01:50:00 | 4° C | 2° C | 92% | 18 km/h | 20 km/h | 01:50:00 | SE | 18 km/h |
| 00:50:00 | 4° C | 3° C | 100% | 11 km/h | 12 km/h | 00:50:00 | S | 11 km/h |
| 23:50:00 | 4° C | 3° C | 94% | 11 km/h | 20 km/h | 23:47:00 | E | 14 km/h |
| 22:50:00 | 4° C | 4° C | 99% | 30 km/h | 35 km/h | 22:50:00 | SE | 27 km/h |
| 21:50:00 | 4° C | 4° C | 100% | 27 km/h | 35 km/h | 21:50:00 | SE | 24 km/h |
| 20:50:00 | 4° C | 4° C | 100% | 19 km/h | 33 km/h | 20:46:00 | SE | 14 km/h |
| 19:50:00 | 5° C | 5° C | 100% | 28 km/h | 33 km/h | 19:48:00 | SE | 27 km/h |
| 18:50:00 | 5° C | 5° C | 93% | 16 km/h | 27 km/h | 18:50:00 | SE | 19 km/h |
| 17:50:00 | 6° C | 4° C | 85% | 8 km/h | 12 km/h | 17:50:00 | S | 6 km/h |
| 16:50:00 | 7° C | 4° C | 83% | 9 km/h | 15 km/h | 16:47:00 | S | 8 km/h |
| 15:50:00 | 9° C | 6° C | 77% | 12 km/h | 17 km/h | 15:46:00 | S | 10 km/h |
| 14:50:00 | 8° C | 5° C | 77% | 6 km/h | 13 km/h | 14:48:00 | SE | 9 km/h |
| 13:50:00 | 6° C | 2° C | 78% | 13 km/h | 22 km/h | 13:47:00 | E | 15 km/h |
| 12:50:00 | 6° C | 2° C | 78% | 32 km/h | 42 km/h | 12:47:00 | SE | 31 km/h |
| 11:50:00 | 7° C | 4° C | 85% | 21 km/h | 31 km/h | 11:50:00 | SE | 21 km/h |
| 10:50:00 | 8° C | 5° C | 80% | 13 km/h | 30 km/h | 10:46:00 | S | 13 km/h |
| 09:50:00 | 9° C | 4° C | 74% | 13 km/h | 22 km/h | 09:48:00 | SE | 14 km/h |
| 08:50:00 | 8° C | 5° C | 80% | 19 km/h | 26 km/h | 08:48:00 | SE | 18 km/h |
| 07:50:00 | 7° C | 4° C | 80% | 15 km/h | 36 km/h | 07:48:00 | E | 22 km/h |
| 06:50:00 | 7° C | 4° C | 79% | 20 km/h | 25 km/h | 06:47:00 | SE | 21 km/h |
| 05:50:00 | 7° C | 4° C | 82% | 16 km/h | 29 km/h | 05:46:00 | SE | 18 km/h |
Subpeak Weather
| Time | Avg. Air Temp | Dew Point | Avg. Rel Humidity | Avg. 2 Min Wind Speed | Max Gust Velocity | MGV Time | MGV Direction | Avg. Spot Wind Velocity |
|---|---|---|---|---|---|---|---|---|
| 2026-09-03 04:50:00 | 4° C | 2° C | 91% | 19 km/h | 24 km/h | 04:49:00 | SE | 16 km/h |
| 04:45:00 | 4° C | 2° C | 89% | 16 km/h | 26 km/h | 04:42:00 | SE | 17 km/h |
| 04:40:00 | 4° C | 2° C | 87% | 21 km/h | 26 km/h | 04:38:00 | SE | 23 km/h |
| 04:35:00 | 4° C | 2° C | 88% | 22 km/h | 28 km/h | 04:35:00 | SE | 21 km/h |
| 04:30:00 | 4° C | 2° C | 90% | 14 km/h | 24 km/h | 04:27:00 | SE | 15 km/h |
| 04:25:00 | 4° C | 2° C | 88% | 20 km/h | 22 km/h | 04:25:00 | SE | 18 km/h |
| 04:20:00 | 4° C | 2° C | 87% | 17 km/h | 19 km/h | 04:16:00 | SE | 18 km/h |
| 04:15:00 | 4° C | 2° C | 88% | 17 km/h | 20 km/h | 04:12:00 | SE | 18 km/h |
| 04:10:00 | 4° C | 2° C | 89% | 18 km/h | 20 km/h | 04:10:00 | S | 18 km/h |
| 04:05:00 | 4° C | 2° C | 90% | 20 km/h | 23 km/h | 04:03:00 | S | 21 km/h |
| 04:00:00 | 4° C | 2° C | 89% | 20 km/h | 22 km/h | 04:00:00 | SE | 19 km/h |
| 03:55:00 | 4° C | 2° C | 90% | 14 km/h | 17 km/h | 03:55:00 | SE | 14 km/h |
| 03:50:00 | 4° C | 2° C | 91% | 9 km/h | 13 km/h | 03:48:00 | SE | 10 km/h |




